Time;durP1;ratioP1;P1;durP2;ratioP2;P2;SDS_P1;SDS_P2;PMS_P1;PMS_P2;Temp;Humidity;BMP_temperature;BMP_pressure;BME280_temperature;BME280_humidity;BME280_pressure;Samples;Min_cycle;Max_cycle;Signal;HPM_P1;HPM_P2
2023/06/15 00:01:29;;;;;;;0.10;0.10;;;17.60;99.90;;;;;;5044646;28;20221;-80
2023/06/15 00:03:55;;;;;;;0.10;0.10;;;17.60;99.90;;;;;;5045403;28;20182;-80
2023/06/15 00:06:21;;;;;;;0.10;0.10;;;17.60;99.90;;;;;;5053526;28;20200;-79
2023/06/15 00:08:46;;;;;;;0.10;0.10;;;17.60;99.90;;;;;;5049316;28;20195;-80
2023/06/15 00:11:12;;;;;;;0.10;0.10;;;17.60;99.90;;;;;;5049677;28;20271;-80
2023/06/15 00:13:37;;;;;;;0.10;0.10;;;17.50;99.90;;;;;;5048172;28;20207;-80
2023/06/15 00:16:03;;;;;;;0.10;0.10;;;17.60;99.90;;;;;;5047157;28;20211;-80
2023/06/15 00:18:30;;;;;;;0.10;0.10;;;17.60;99.90;;;;;;5048274;28;20296;-80
2023/06/15 00:20:55;;;;;;;0.10;0.10;;;17.60;99.90;;;;;;5047892;28;20199;-80
2023/06/15 00:23:26;;;;;;;0.10;0.10;;;17.50;99.90;;;;;;5047654;28;20268;-79
2023/06/15 00:25:52;;;;;;;0.10;0.10;;;17.50;99.90;;;;;;5048356;28;20182;-80
2023/06/15 00:28:18;;;;;;;0.10;0.10;;;17.60;99.90;;;;;;5048666;28;20220;-80
2023/06/15 00:30:43;;;;;;;0.10;0.10;;;17.50;99.90;;;;;;5049391;28;20186;-80
2023/06/15 00:33:09;;;;;;;0.10;0.10;;;17.50;99.90;;;;;;5047800;28;20531;-80
2023/06/15 00:35:34;;;;;;;0.10;0.10;;;17.50;99.90;;;;;;5048944;28;20653;-80
2023/06/15 00:38:00;;;;;;;0.10;0.10;;;17.50;99.90;;;;;;5047714;28;20723;-79
2023/06/15 00:40:25;;;;;;;0.10;0.10;;;17.50;99.90;;;;;;5048917;28;20231;-80
2023/06/15 00:42:51;;;;;;;0.10;0.10;;;17.50;99.90;;;;;;5048985;28;20216;-80
2023/06/15 00:45:16;;;;;;;0.10;0.10;;;17.50;99.90;;;;;;5049864;28;20315;-80
2023/06/15 00:47:43;;;;;;;0.10;0.10;;;17.50;99.90;;;;;;5048082;28;20496;-81
2023/06/15 00:50:10;;;;;;;0.10;0.10;;;17.50;99.90;;;;;;5047288;28;20185;-81
2023/06/15 00:52:37;;;;;;;0.10;0.10;;;17.50;99.90;;;;;;5047876;28;20189;-81
2023/06/15 00:55:03;;;;;;;0.10;0.10;;;17.60;99.90;;;;;;5048467;28;20177;-80
2023/06/15 00:57:30;;;;;;;0.10;0.10;;;17.60;99.90;;;;;;5047719;28;20182;-80
2023/06/15 00:59:56;;;;;;;0.10;0.10;;;17.60;99.90;;;;;;5048200;28;20270;-80
2023/06/15 01:02:24;;;;;;;0.10;0.10;;;17.60;99.90;;;;;;5046896;28;20683;-80
2023/06/15 01:04:50;;;;;;;0.10;0.10;;;17.60;99.90;;;;;;5046034;28;20236;-81
2023/06/15 01:07:16;;;;;;;0.10;0.10;;;17.70;99.90;;;;;;5046846;28;20185;-81
2023/06/15 01:09:43;;;;;;;0.10;0.10;;;17.70;99.90;;;;;;5046496;28;21131;-80
2023/06/15 01:12:14;;;;;;;0.10;0.10;;;17.60;99.90;;;;;;5045234;28;20612;-81
2023/06/15 01:14:40;;;;;;;0.10;0.10;;;17.60;99.90;;;;;;5047529;28;20189;-81
2023/06/15 01:17:09;;;;;;;0.10;0.10;;;17.60;99.90;;;;;;5046128;28;20209;-81
2023/06/15 01:19:54;;;;;;;0.10;0.10;;;17.50;99.90;;;;;;5047737;28;21117;-80
2023/06/15 01:22:34;;;;;;;0.10;0.10;;;17.60;99.90;;;;;;5046247;28;20763;-80
2023/06/15 01:25:15;;;;;;;0.10;0.10;;;17.60;99.90;;;;;;5045732;28;20181;-80
2023/06/15 01:27:42;;;;;;;0.10;0.10;;;17.50;99.90;;;;;;5046107;28;20653;-80
2023/06/15 01:30:09;;;;;;;0.10;0.10;;;17.50;99.90;;;;;;5046379;28;20177;-80
2023/06/15 01:32:35;;;;;;;0.10;0.10;;;17.40;99.90;;;;;;5052434;28;20200;-81
2023/06/15 01:35:01;;;;;;;0.10;0.10;;;17.40;99.90;;;;;;5047194;28;20185;-81
2023/06/15 01:37:26;;;;;;;0.10;0.10;;;17.40;99.90;;;;;;5045824;28;20305;-80
2023/06/15 01:39:52;;;;;;;0.10;0.10;;;17.40;99.90;;;;;;5045848;28;20184;-80
2023/06/15 01:42:18;;;;;;;0.10;0.10;;;17.30;99.90;;;;;;5046126;28;20202;-80
2023/06/15 01:44:45;;;;;;;0.10;0.10;;;17.20;99.90;;;;;;5046776;28;20181;-80
2023/06/15 01:47:11;;;;;;;0.10;0.10;;;17.20;99.90;;;;;;5045836;28;20929;-80
2023/06/15 01:49:38;;;;;;;0.10;0.10;;;17.10;99.90;;;;;;5047425;28;20192;-80
2023/06/15 01:52:04;;;;;;;0.10;0.10;;;17.10;99.90;;;;;;5045545;28;20211;-80
2023/06/15 01:54:29;;;;;;;0.10;0.10;;;17.00;99.90;;;;;;5045594;28;20201;-80
2023/06/15 01:56:55;;;;;;;0.10;0.10;;;17.00;99.90;;;;;;5045866;28;20185;-81
2023/06/15 01:59:21;;;;;;;0.10;0.10;;;17.00;99.90;;;;;;5045566;28;20201;-80
2023/06/15 02:01:46;;;;;;;0.10;0.10;;;17.00;99.90;;;;;;5045215;28;20209;-80
2023/06/15 02:04:12;;;;;;;0.10;0.10;;;16.90;99.90;;;;;;5045092;28;20200;-80
2023/06/15 02:06:37;;;;;;;0.10;0.10;;;16.90;99.90;;;;;;5045055;28;20542;-80
2023/06/15 02:09:03;;;;;;;0.10;0.10;;;16.90;99.90;;;;;;5045988;28;20235;-81
2023/06/15 02:11:28;;;;;;;0.10;0.10;;;16.80;99.90;;;;;;5044254;28;20197;-80
2023/06/15 02:13:54;;;;;;;0.10;0.10;;;16.70;99.90;;;;;;5045235;28;20185;-80
2023/06/15 02:16:19;;;;;;;0.10;0.10;;;16.60;99.90;;;;;;5046264;28;20690;-80
2023/06/15 02:18:45;;;;;;;0.10;0.10;;;16.60;99.90;;;;;;5044808;28;20209;-81
2023/06/15 02:21:11;;;;;;;0.10;0.10;;;16.50;99.90;;;;;;5045950;28;20201;-80
2023/06/15 02:23:37;;;;;;;0.10;0.10;;;16.40;99.90;;;;;;5044635;28;20182;-81
2023/06/15 02:26:03;;;;;;;0.10;0.10;;;16.40;99.90;;;;;;5044949;28;20228;-80
2023/06/15 02:28:28;;;;;;;0.10;0.10;;;16.40;99.90;;;;;;5046053;28;20295;-80
2023/06/15 02:30:54;;;;;;;0.10;0.10;;;16.40;99.90;;;;;;5043646;28;20647;-80
2023/06/15 02:33:20;;;;;;;0.10;0.10;;;16.40;99.90;;;;;;5044427;28;20186;-80
2023/06/15 02:35:45;;;;;;;0.10;0.10;;;16.40;99.90;;;;;;5044110;28;20177;-80
2023/06/15 02:38:11;;;;;;;0.10;0.10;;;16.40;99.90;;;;;;5044689;28;20259;-80
2023/06/15 02:40:37;;;;;;;0.10;0.10;;;16.40;99.90;;;;;;5045941;28;20178;-80
2023/06/15 02:43:03;;;;;;;0.10;0.10;;;16.40;99.90;;;;;;5044320;28;20304;-80
2023/06/15 02:45:29;;;;;;;0.10;0.10;;;16.40;99.90;;;;;;5044621;28;20196;-80
2023/06/15 02:47:56;;;;;;;0.10;0.10;;;16.40;99.90;;;;;;5045815;28;20210;-81
2023/06/15 02:50:21;;;;;;;0.10;0.10;;;16.50;99.90;;;;;;5044538;28;20186;-80
2023/06/15 02:52:47;;;;;;;0.10;0.10;;;16.50;99.90;;;;;;5044204;28;20189;-81
2023/06/15 02:55:15;;;;;;;0.10;0.10;;;16.50;99.90;;;;;;5044233;28;20226;-81
2023/06/15 02:57:41;;;;;;;0.10;0.10;;;16.60;99.90;;;;;;5043437;28;20297;-80
2023/06/15 03:00:11;;;;;;;0.10;0.10;;;16.60;99.90;;;;;;5044403;28;20556;-80
2023/06/15 03:02:37;;;;;;;0.10;0.10;;;16.60;99.90;;;;;;5043965;28;20202;-81
2023/06/15 03:05:03;;;;;;;0.10;0.10;;;16.50;99.90;;;;;;5045915;28;20271;-81
2023/06/15 03:07:30;;;;;;;0.10;0.10;;;16.60;99.90;;;;;;5044422;28;20208;-80
2023/06/15 03:09:55;;;;;;;0.10;0.10;;;16.60;99.90;;;;;;5045417;28;20205;-80
2023/06/15 03:12:21;;;;;;;0.10;0.10;;;16.50;99.90;;;;;;5045616;28;20216;-80
2023/06/15 03:14:56;;;;;;;0.10;0.10;;;16.40;99.90;;;;;;5045495;28;20185;-80
2023/06/15 03:17:24;;;;;;;0.10;0.10;;;16.40;99.90;;;;;;5044051;28;20200;-80
2023/06/15 03:19:50;;;;;;;0.10;0.10;;;16.30;99.90;;;;;;5045391;28;20268;-81
2023/06/15 03:22:16;;;;;;;0.10;0.10;;;16.30;99.90;;;;;;5043293;28;20742;-81
2023/06/15 03:24:44;;;;;;;0.10;0.10;;;16.40;99.90;;;;;;5053538;28;20195;-80
2023/06/15 03:27:10;;;;;;;0.10;0.10;;;16.40;99.90;;;;;;5044017;28;20239;-80
2023/06/15 03:29:39;;;;;;;0.10;0.10;;;16.40;99.90;;;;;;5045188;28;20197;-80
2023/06/15 03:32:06;;;;;;;0.10;0.10;;;16.40;99.90;;;;;;5043592;28;20252;-81
2023/06/15 03:34:31;;;;;;;0.10;0.10;;;16.30;99.90;;;;;;5042705;28;20195;-80
2023/06/15 03:36:57;;;;;;;0.10;0.10;;;16.40;99.90;;;;;;5045153;28;20556;-80
2023/06/15 03:39:22;;;;;;;0.00;0.00;;;16.80;99.90;;;;;;5045860;28;20263;-81
2023/06/15 03:41:48;;;;;;;0.10;0.10;;;16.60;99.90;;;;;;5046140;28;20209;-80
2023/06/15 03:44:13;;;;;;;0.10;0.10;;;16.60;99.90;;;;;;5050299;28;20243;-81
2023/06/15 03:46:41;;;;;;;1.03;1.03;;;17.10;99.90;;;;;;5048976;28;20273;-79
2023/06/15 03:49:07;;;;;;;0.10;0.10;;;17.90;99.90;;;;;;5049806;28;20197;-80
2023/06/15 03:51:32;;;;;;;0.10;0.10;;;18.50;99.90;;;;;;5049408;28;20182;-80
2023/06/15 03:53:59;;;;;;;0.10;0.10;;;19.00;99.90;;;;;;5048291;28;20281;-80
2023/06/15 03:56:25;;;;;;;0.10;0.10;;;19.40;99.90;;;;;;5048849;28;20175;-80
2023/06/15 03:58:50;;;;;;;0.10;0.10;;;19.50;99.90;;;;;;5048779;28;20224;-80
2023/06/15 04:01:16;;;;;;;0.10;0.10;;;19.70;99.90;;;;;;5046627;28;20294;-80
2023/06/15 04:03:42;;;;;;;0.10;0.10;;;19.80;99.90;;;;;;5047270;28;20177;-80
2023/06/15 04:06:07;;;;;;;0.10;0.10;;;20.30;99.90;;;;;;5048640;28;20231;-80
2023/06/15 04:08:33;;;;;;;0.10;0.10;;;20.40;99.90;;;;;;5047045;28;20573;-80
2023/06/15 04:10:59;;;;;;;0.10;0.10;;;20.40;99.90;;;;;;5048515;28;20844;-80
2023/06/15 04:13:25;;;;;;;0.10;0.10;;;20.70;99.90;;;;;;5046896;28;20323;-80
2023/06/15 04:15:53;;;;;;;0.10;0.10;;;20.80;99.90;;;;;;5047060;28;20272;-80
2023/06/15 04:18:19;;;;;;;0.10;0.10;;;21.10;99.90;;;;;;5048054;28;20198;-80
2023/06/15 04:20:45;;;;;;;0.10;0.10;;;21.70;99.90;;;;;;5047399;28;20551;-80
2023/06/15 04:23:11;;;;;;;0.10;0.10;;;21.90;99.90;;;;;;5046271;28;20208;-80
2023/06/15 04:25:37;;;;;;;0.10;0.10;;;22.10;99.90;;;;;;5049188;28;20200;-80
2023/06/15 04:28:05;;;;;;;0.10;0.10;;;21.80;99.90;;;;;;5048342;28;20206;-80
2023/06/15 04:30:31;;;;;;;0.10;0.10;;;21.50;99.90;;;;;;5048357;28;20338;-80
2023/06/15 04:32:59;;;;;;;0.10;0.10;;;20.80;99.90;;;;;;5049242;28;20694;-80
2023/06/15 04:35:29;;;;;;;0.10;0.10;;;20.60;99.90;;;;;;5048343;28;20672;-80
2023/06/15 04:37:58;;;;;;;0.10;0.10;;;20.40;99.90;;;;;;5049724;28;20295;-80
2023/06/15 04:40:24;;;;;;;0.10;0.10;;;20.30;99.90;;;;;;5046827;28;20185;-80
2023/06/15 04:42:50;;;;;;;0.10;0.10;;;20.20;99.90;;;;;;5048581;28;20803;-80
2023/06/15 04:45:16;;;;;;;0.10;0.10;;;19.60;99.90;;;;;;5048713;28;20212;-80
2023/06/15 04:47:42;;;;;;;0.10;0.10;;;19.40;99.90;;;;;;5047490;28;20279;-80
2023/06/15 04:50:08;;;;;;;0.10;0.10;;;19.30;99.90;;;;;;5046083;28;20187;-80
2023/06/15 04:52:34;;;;;;;0.10;0.10;;;18.90;99.90;;;;;;5047926;28;20191;-80
2023/06/15 04:55:00;;;;;;;0.10;0.10;;;18.70;99.90;;;;;;5046812;28;20289;-80
2023/06/15 04:57:25;;;;;;;0.10;0.10;;;18.70;99.90;;;;;;5048182;28;20674;-80
2023/06/15 04:59:51;;;;;;;0.10;0.10;;;18.70;99.90;;;;;;5046883;28;20206;-80
2023/06/15 05:02:16;;;;;;;0.10;0.10;;;18.70;99.90;;;;;;5047594;28;20287;-80
2023/06/15 05:04:42;;;;;;;0.10;0.10;;;18.80;99.90;;;;;;5046512;28;20204;-80
2023/06/15 05:07:07;;;;;;;0.10;0.10;;;18.70;99.90;;;;;;5046600;28;20172;-80
2023/06/15 05:09:33;;;;;;;0.10;0.10;;;18.80;99.90;;;;;;5046688;28;20568;-80
2023/06/15 05:11:58;;;;;;;0.10;0.10;;;18.80;99.90;;;;;;5047981;28;20259;-80
2023/06/15 05:14:26;;;;;;;0.10;0.10;;;18.70;99.90;;;;;;5046645;28;20284;-80
2023/06/15 05:16:51;;;;;;;0.10;0.10;;;18.70;99.90;;;;;;5048630;28;20514;-80
2023/06/15 05:19:17;;;;;;;0.10;0.10;;;18.80;99.90;;;;;;5046222;28;20228;-80
2023/06/15 05:21:43;;;;;;;0.10;0.10;;;18.90;99.90;;;;;;5045941;28;20205;-80
2023/06/15 05:24:08;;;;;;;0.10;0.10;;;18.90;99.90;;;;;;5046037;28;20235;-80
2023/06/15 05:26:34;;;;;;;0.10;0.10;;;18.90;99.90;;;;;;5047597;28;20653;-80
2023/06/15 05:28:59;;;;;;;0.10;0.10;;;18.90;99.90;;;;;;5047666;28;20211;-80
2023/06/15 05:31:25;;;;;;;0.10;0.10;;;19.10;99.90;;;;;;5045803;28;20181;-80
2023/06/15 05:33:50;;;;;;;0.10;0.10;;;19.10;99.90;;;;;;5054162;28;20189;-80
2023/06/15 05:36:16;;;;;;;0.10;0.10;;;19.10;99.90;;;;;;5045401;28;20696;-80
2023/06/15 05:38:41;;;;;;;0.10;0.10;;;19.10;99.90;;;;;;5048127;28;20209;-80
2023/06/15 05:41:07;;;;;;;0.10;0.10;;;19.30;99.90;;;;;;5048017;28;20189;-79
2023/06/15 05:43:32;;;;;;;0.10;0.10;;;19.60;99.90;;;;;;5049136;28;20190;-80
2023/06/15 05:45:58;;;;;;;0.10;0.10;;;19.50;99.90;;;;;;5047574;28;20240;-80
2023/06/15 05:48:23;;;;;;;0.10;0.10;;;19.40;99.90;;;;;;5048047;28;20224;-80
2023/06/15 05:50:49;;;;;;;0.10;0.10;;;19.60;99.90;;;;;;5046408;28;20178;-80
2023/06/15 05:53:15;;;;;;;0.10;0.10;;;19.70;99.90;;;;;;5046794;28;20254;-80
2023/06/15 05:55:40;;;;;;;0.10;0.10;;;19.70;99.90;;;;;;5045381;28;20185;-80
2023/06/15 05:58:06;;;;;;;0.10;0.10;;;19.70;99.90;;;;;;5047076;28;20210;-80
2023/06/15 06:00:31;;;;;;;0.10;0.10;;;19.80;99.90;;;;;;5045775;28;20276;-80
2023/06/15 06:02:57;;;;;;;0.10;0.10;;;20.10;99.90;;;;;;5045309;28;20689;-80
2023/06/15 06:05:23;;;;;;;0.10;0.10;;;20.40;99.90;;;;;;5044956;28;20288;-80
2023/06/15 06:07:49;;;;;;;0.10;0.10;;;20.60;99.90;;;;;;5046508;28;20281;-80
2023/06/15 06:10:18;;;;;;;0.10;0.10;;;20.30;99.90;;;;;;5045239;28;20189;-80
2023/06/15 06:12:44;;;;;;;0.10;0.10;;;20.50;99.90;;;;;;5045298;28;20712;-80
2023/06/15 06:15:10;;;;;;;0.10;0.10;;;20.50;99.90;;;;;;5044527;28;20197;-80
2023/06/15 06:17:36;;;;;;;0.10;0.10;;;20.30;99.90;;;;;;5046102;28;20209;-80
2023/06/15 06:20:02;;;;;;;0.10;0.10;;;20.50;99.90;;;;;;5046410;28;20200;-80
2023/06/15 06:22:28;;;;;;;0.10;0.10;;;20.60;99.90;;;;;;5046365;28;20302;-80
2023/06/15 06:24:53;;;;;;;0.10;0.10;;;20.80;99.90;;;;;;5045457;28;21110;-81
2023/06/15 06:27:19;;;;;;;0.10;0.10;;;20.80;99.90;;;;;;5043654;28;20548;-80
2023/06/15 06:29:44;;;;;;;0.10;0.10;;;20.80;99.90;;;;;;5044658;28;20178;-80
2023/06/15 06:32:10;;;;;;;0.10;0.10;;;20.50;99.90;;;;;;5044468;28;20261;-80
2023/06/15 06:34:35;;;;;;;0.10;0.10;;;20.30;99.90;;;;;;5044175;28;20182;-81
2023/06/15 06:37:05;;;;;;;0.10;0.10;;;20.40;99.90;;;;;;5044571;28;20331;-80
2023/06/15 06:39:31;;;;;;;0.10;0.10;;;20.40;99.90;;;;;;5044226;28;20551;-80
2023/06/15 06:41:57;;;;;;;0.10;0.10;;;20.70;99.90;;;;;;5044218;28;20205;-80
2023/06/15 06:44:22;;;;;;;0.10;0.10;;;20.90;99.90;;;;;;5048275;28;20182;-82
2023/06/15 06:46:48;;;;;;;0.10;0.10;;;20.70;99.90;;;;;;5052039;28;20522;-80
2023/06/15 06:49:13;;;;;;;0.10;0.10;;;20.60;99.90;;;;;;5045680;28;20284;-80
2023/06/15 06:51:39;;;;;;;0.10;0.10;;;20.80;99.90;;;;;;5047913;28;20676;-79
2023/06/15 06:54:05;;;;;;;0.10;0.10;;;21.00;99.90;;;;;;5047364;28;20622;-80
2023/06/15 06:56:30;;;;;;;0.10;0.10;;;20.80;99.90;;;;;;5048856;28;20247;-80
2023/06/15 06:58:56;;;;;;;0.10;0.10;;;21.00;99.90;;;;;;5047860;28;20197;-80
2023/06/15 07:01:21;;;;;;;0.10;0.10;;;21.00;99.90;;;;;;5048868;28;20213;-80
2023/06/15 07:03:47;;;;;;;0.10;0.10;;;21.30;99.90;;;;;;5048285;28;20182;-80
2023/06/15 07:06:12;;;;;;;0.10;0.10;;;21.50;99.90;;;;;;5048523;28;20205;-80
2023/06/15 07:08:38;;;;;;;0.10;0.10;;;21.30;99.90;;;;;;5046462;28;20193;-80
2023/06/15 07:11:03;;;;;;;0.10;0.10;;;21.20;99.90;;;;;;5044880;28;20200;-80
2023/06/15 07:13:29;;;;;;;0.10;0.10;;;21.60;99.90;;;;;;5045900;28;20200;-80
2023/06/15 07:15:57;;;;;;;0.10;0.10;;;21.50;99.90;;;;;;5045343;28;20185;-80
2023/06/15 07:18:23;;;;;;;0.10;0.10;;;21.50;99.90;;;;;;5049542;28;20259;-80
2023/06/15 07:20:53;;;;;;;0.10;0.10;;;21.30;99.90;;;;;;5049792;28;20177;-80
2023/06/15 07:23:20;;;;;;;0.30;0.30;;;21.50;99.90;;;;;;5048086;28;20312;-80
2023/06/15 07:25:46;;;;;;;0.10;0.10;;;21.60;99.90;;;;;;5048748;28;20181;-80
2023/06/15 07:28:11;;;;;;;0.10;0.10;;;21.60;99.90;;;;;;5049422;28;20197;-80
2023/06/15 07:30:37;;;;;;;0.10;0.10;;;21.60;99.90;;;;;;5048125;28;20772;-81
2023/06/15 07:33:03;;;;;;;2.10;2.00;;;21.90;99.90;;;;;;5048220;28;20845;-80
2023/06/15 07:35:28;;;;;;;0.73;0.73;;;21.60;99.90;;;;;;5048194;28;20174;-80
2023/06/15 07:37:54;;;;;;;0.10;0.10;;;21.60;99.90;;;;;;5050415;28;20213;-80
2023/06/15 07:40:19;;;;;;;0.10;0.10;;;22.20;99.90;;;;;;5050093;28;20185;-80
2023/06/15 07:42:45;;;;;;;0.10;0.10;;;22.50;99.90;;;;;;5049040;28;20201;-80
2023/06/15 07:45:11;;;;;;;0.10;0.10;;;22.50;99.90;;;;;;5049520;28;20200;-80
2023/06/15 07:47:36;;;;;;;0.10;0.10;;;22.30;99.90;;;;;;5049899;28;20193;-80
2023/06/15 07:50:02;;;;;;;0.10;0.10;;;22.30;99.90;;;;;;5048748;28;20188;-80
2023/06/15 07:52:27;;;;;;;0.20;0.20;;;22.10;99.90;;;;;;5049516;28;20186;-80
2023/06/15 07:54:53;;;;;;;0.10;0.10;;;22.10;99.90;;;;;;5047451;28;20265;-80
2023/06/15 07:57:18;;;;;;;0.10;0.10;;;22.20;99.90;;;;;;5048141;28;20426;-80
2023/06/15 07:59:44;;;;;;;0.10;0.10;;;22.10;99.90;;;;;;5047881;28;20182;-80
2023/06/15 08:02:09;;;;;;;0.10;0.10;;;22.30;99.90;;;;;;5047296;28;20205;-80
2023/06/15 08:04:35;;;;;;;0.10;0.10;;;22.40;99.90;;;;;;5047697;28;20900;-80
2023/06/15 08:07:00;;;;;;;0.10;0.10;;;22.40;99.90;;;;;;5048111;28;20174;-80
2023/06/15 08:09:26;;;;;;;0.10;0.10;;;22.80;99.90;;;;;;5047734;28;20200;-80
2023/06/15 08:11:51;;;;;;;0.10;0.10;;;22.90;99.90;;;;;;5047015;28;20228;-80
2023/06/15 08:14:19;;;;;;;0.10;0.10;;;22.80;99.90;;;;;;5047217;28;20236;-80
2023/06/15 08:16:44;;;;;;;0.10;0.10;;;22.70;99.90;;;;;;5047736;28;20534;-80
2023/06/15 08:19:10;;;;;;;0.10;0.10;;;22.80;99.90;;;;;;5048499;28;20210;-80
2023/06/15 08:21:35;;;;;;;0.10;0.10;;;22.70;99.90;;;;;;5046872;28;20603;-80
2023/06/15 08:24:01;;;;;;;0.10;0.10;;;22.50;99.90;;;;;;5048085;28;20247;-80
2023/06/15 08:26:26;;;;;;;0.10;0.10;;;22.40;99.90;;;;;;5046995;28;20216;-80
2023/06/15 08:28:52;;;;;;;0.10;0.10;;;22.50;99.90;;;;;;5045073;28;20204;-80
2023/06/15 08:31:18;;;;;;;0.10;0.10;;;22.60;99.90;;;;;;5047587;28;20200;-80
2023/06/15 08:33:43;;;;;;;0.20;0.20;;;22.80;99.90;;;;;;5045553;28;20267;-80
2023/06/15 08:36:10;;;;;;;0.10;0.10;;;22.60;99.90;;;;;;5046663;28;20307;-80
2023/06/15 08:38:36;;;;;;;0.10;0.10;;;23.00;99.90;;;;;;5046427;28;20243;-80
2023/06/15 08:41:01;;;;;;;0.10;0.10;;;23.00;99.90;;;;;;5047600;28;20169;-80
2023/06/15 08:43:29;;;;;;;1.83;1.73;;;22.90;99.90;;;;;;5046587;28;20189;-80
2023/06/15 08:45:58;;;;;;;0.10;0.10;;;23.50;99.90;;;;;;5047622;28;20178;-80
2023/06/15 08:48:26;;;;;;;0.10;0.10;;;24.00;99.90;;;;;;5045817;28;20201;-80
2023/06/15 08:50:52;;;;;;;0.10;0.10;;;23.60;99.90;;;;;;5045205;28;20655;-80
2023/06/15 08:53:20;;;;;;;0.10;0.10;;;23.60;99.90;;;;;;5046284;28;20186;-80
2023/06/15 08:55:46;;;;;;;0.40;0.40;;;23.60;99.90;;;;;;5046096;28;20205;-81
2023/06/15 08:58:12;;;;;;;0.10;0.10;;;23.30;99.90;;;;;;5047878;28;20320;-80
2023/06/15 09:00:37;;;;;;;0.10;0.10;;;23.60;99.90;;;;;;5047925;28;20182;-80
2023/06/15 09:03:06;;;;;;;0.10;0.10;;;23.30;99.90;;;;;;5049139;28;20233;-80
2023/06/15 09:05:32;;;;;;;0.10;0.10;;;23.10;99.90;;;;;;5049119;28;20213;-80
2023/06/15 09:07:58;;;;;;;0.10;0.10;;;23.60;99.90;;;;;;5048709;28;20258;-80
2023/06/15 09:10:25;;;;;;;0.10;0.10;;;23.50;99.90;;;;;;5047565;28;20261;-80
2023/06/15 09:12:55;;;;;;;0.10;0.10;;;23.90;99.90;;;;;;5047823;28;20230;-80
2023/06/15 09:15:22;;;;;;;0.10;0.10;;;24.10;99.90;;;;;;5046098;28;20192;-80
2023/06/15 09:17:54;;;;;;;0.10;0.10;;;24.00;99.90;;;;;;5046145;28;20285;-80
2023/06/15 09:20:21;;;;;;;0.10;0.10;;;24.10;99.90;;;;;;5045892;28;20544;-80
2023/06/15 09:22:47;;;;;;;0.10;0.10;;;23.80;99.90;;;;;;5045840;28;20197;-81
2023/06/15 09:25:19;;;;;;;0.10;0.10;;;24.10;99.90;;;;;;5046228;28;20182;-80
2023/06/15 09:27:59;;;;;;;0.10;0.10;;;24.30;99.90;;;;;;5045658;28;20208;-81
2023/06/15 09:30:38;;;;;;;0.10;0.10;;;24.70;99.90;;;;;;5053728;28;20181;-80
2023/06/15 09:33:15;;;;;;;0.10;0.10;;;24.10;99.90;;;;;;5047289;28;20259;-80
2023/06/15 09:36:05;;;;;;;0.10;0.10;;;24.10;99.90;;;;;;5045465;28;20177;-81
2023/06/15 09:38:42;;;;;;;0.10;0.10;;;24.60;99.90;;;;;;5046667;28;20686;-80
2023/06/15 09:41:08;;;;;;;0.10;0.10;;;24.50;99.90;;;;;;5044747;28;20721;-80
2023/06/15 09:43:36;;;;;;;0.10;0.10;;;24.10;99.90;;;;;;5043890;28;20170;-81
2023/06/15 09:46:08;;;;;;;0.10;0.10;;;24.20;99.90;;;;;;5045545;28;20184;-80
2023/06/15 09:48:37;;;;;;;0.10;0.10;;;24.50;99.90;;;;;;5044653;28;20202;-80
2023/06/15 09:51:02;;;;;;;0.10;0.10;;;24.50;99.90;;;;;;5045879;28;20170;-80
2023/06/15 09:53:30;;;;;;;0.10;0.10;;;25.00;99.90;;;;;;5045152;28;20545;-80
2023/06/15 09:55:57;;;;;;;0.10;0.10;;;24.80;99.90;;;;;;5048235;28;20235;-80
2023/06/15 09:58:22;;;;;;;0.10;0.10;;;24.70;99.90;;;;;;5045943;28;20197;-81
2023/06/15 10:00:49;;;;;;;0.10;0.10;;;24.40;99.90;;;;;;5046436;28;20686;-80
2023/06/15 10:03:19;;;;;;;0.50;0.47;;;24.70;99.90;;;;;;5047984;28;20193;-80
2023/06/15 10:05:47;;;;;;;0.10;0.10;;;24.60;99.90;;;;;;5045913;28;20189;-80
2023/06/15 10:08:16;;;;;;;0.10;0.10;;;24.70;99.90;;;;;;5047372;28;20201;-80
2023/06/15 10:10:43;;;;;;;0.10;0.10;;;24.30;99.90;;;;;;5045069;28;20174;-81
2023/06/15 10:13:15;;;;;;;0.10;0.10;;;24.50;99.90;;;;;;5045610;28;20177;-80
2023/06/15 10:15:45;;;;;;;0.10;0.10;;;24.80;99.90;;;;;;5045273;28;20551;-80
2023/06/15 10:18:13;;;;;;;0.10;0.10;;;25.30;99.90;;;;;;5046446;28;20208;-80
2023/06/15 10:20:40;;;;;;;0.20;0.20;;;25.50;99.90;;;;;;5045490;28;20185;-80
2023/06/15 10:23:10;;;;;;;0.10;0.10;;;24.70;99.90;;;;;;5045855;28;20212;-80
2023/06/15 10:25:36;;;;;;;0.10;0.10;;;24.70;99.90;;;;;;5045292;28;20575;-80
2023/06/15 10:28:11;;;;;;;0.10;0.10;;;24.90;99.90;;;;;;5046818;28;20193;-80
2023/06/15 10:30:48;;;;;;;0.10;0.10;;;24.80;99.90;;;;;;5045164;28;20165;-80
2023/06/15 10:33:39;;;;;;;0.10;0.10;;;25.60;99.90;;;;;;5044204;28;20265;-80
2023/06/15 10:36:24;;;;;;;0.10;0.10;;;25.80;99.90;;;;;;5046056;28;20173;-81
2023/06/15 10:39:03;;;;;;;0.10;0.10;;;25.30;99.90;;;;;;5044264;28;20244;-80
2023/06/15 10:41:29;;;;;;;0.10;0.10;;;25.00;99.90;;;;;;5044027;28;20300;-81
2023/06/15 10:43:59;;;;;;;0.10;0.10;;;24.90;99.90;;;;;;5045893;28;20174;-81
2023/06/15 10:46:30;;;;;;;0.10;0.10;;;25.10;99.90;;;;;;5046031;28;20174;-80
2023/06/15 10:49:05;;;;;;;0.10;0.10;;;25.40;99.90;;;;;;5045563;28;20232;-80
2023/06/15 10:51:36;;;;;;;0.10;0.10;;;26.10;99.90;;;;;;5052269;28;20181;-80
2023/06/15 10:54:05;;;;;;;0.10;0.10;;;25.70;99.90;;;;;;5043816;28;20709;-80
2023/06/15 10:56:31;;;;;;;0.10;0.10;;;25.80;99.90;;;;;;5052802;28;20181;-80
2023/06/15 10:59:03;;;;;;;0.10;0.10;;;25.80;99.90;;;;;;5043985;28;20239;-81
2023/06/15 11:01:33;;;;;;;0.10;0.10;;;26.00;99.90;;;;;;5045004;28;20299;-80
2023/06/15 11:04:01;;;;;;;0.10;0.10;;;26.50;99.90;;;;;;5044016;28;20182;-80
2023/06/15 11:06:33;;;;;;;0.10;0.10;;;26.80;99.90;;;;;;5043737;28;20240;-81
2023/06/15 11:09:13;;;;;;;0.10;0.10;;;26.00;99.90;;;;;;5044273;28;20678;-82
2023/06/15 11:11:42;;;;;;;0.10;0.10;;;26.10;99.90;;;;;;5043221;28;21038;-81
2023/06/15 11:14:21;;;;;;;0.10;0.10;;;26.50;99.90;;;;;;5042968;28;20174;-81
2023/06/15 11:17:01;;;;;;;0.22;0.22;;;27.40;99.90;;;;;;5043095;28;20182;-81
2023/06/15 11:19:27;;;;;;;0.10;0.10;;;27.10;99.90;;;;;;5043310;28;20201;-81
2023/06/15 11:22:01;;;;;;;0.10;0.10;;;26.90;99.90;;;;;;5045709;28;20710;-81
2023/06/15 11:24:33;;;;;;;0.10;0.10;;;27.00;99.90;;;;;;5046145;28;20219;-81
2023/06/15 11:27:03;;;;;;;0.10;0.10;;;26.40;99.90;;;;;;5047122;28;20162;-81
2023/06/15 11:29:32;;;;;;;0.10;0.10;;;27.50;99.90;;;;;;5046410;28;20232;-81
2023/06/15 11:32:04;;;;;;;0.10;0.10;;;27.90;99.90;;;;;;5046553;28;20177;-81
2023/06/15 11:34:33;;;;;;;0.10;0.10;;;28.30;99.90;;;;;;5045298;28;20193;-81
2023/06/15 11:37:00;;;;;;;0.82;0.28;;;27.00;99.90;;;;;;5045085;28;20181;-81
2023/06/15 11:39:28;;;;;;;0.13;0.13;;;25.90;99.90;;;;;;5044432;28;20248;-81
2023/06/15 11:41:56;;;;;;;0.20;0.20;;;25.90;99.90;;;;;;5044194;28;20614;-81
2023/06/15 11:44:23;;;;;;;0.30;0.30;;;25.20;99.90;;;;;;5045021;28;20177;-81
2023/06/15 11:47:00;;;;;;;0.10;0.10;;;25.30;99.90;;;;;;5044653;28;20177;-81
2023/06/15 11:49:32;;;;;;;0.10;0.10;;;25.80;99.90;;;;;;5044379;28;20222;-81
2023/06/15 11:51:58;;;;;;;0.10;0.10;;;26.20;99.90;;;;;;5044592;28;20550;-81
2023/06/15 11:54:25;;;;;;;0.10;0.10;;;26.40;99.90;;;;;;5044774;28;20186;-81
2023/06/15 11:56:51;;;;;;;0.10;0.10;;;26.40;99.90;;;;;;5045899;28;20193;-81
2023/06/15 11:59:17;;;;;;;0.10;0.10;;;26.30;99.90;;;;;;5045723;28;20571;-81
2023/06/15 12:01:44;;;;;;;0.10;0.10;;;27.00;99.90;;;;;;5046106;28;20475;-81
2023/06/15 12:04:12;;;;;;;0.10;0.10;;;27.00;99.90;;;;;;5049690;28;20178;-81
2023/06/15 12:06:45;;;;;;;0.10;0.10;;;27.20;99.90;;;;;;5048247;28;20219;-81
2023/06/15 12:09:11;;;;;;;0.30;0.30;;;27.50;99.90;;;;;;5047958;28;20732;-81
2023/06/15 12:11:37;;;;;;;0.10;0.10;;;27.60;99.90;;;;;;5046134;28;20235;-81
2023/06/15 12:14:07;;;;;;;1.33;1.33;;;27.20;99.90;;;;;;5048582;28;20189;-81
2023/06/15 12:16:32;;;;;;;0.10;0.10;;;27.00;99.90;;;;;;5046430;28;20276;-81
2023/06/15 12:18:59;;;;;;;0.10;0.10;;;26.80;99.90;;;;;;5054729;28;20325;-81
2023/06/15 12:21:31;;;;;;;0.10;0.10;;;26.60;99.90;;;;;;5047871;28;20231;-81
2023/06/15 12:23:57;;;;;;;0.10;0.10;;;27.10;99.90;;;;;;5046245;28;20250;-82
2023/06/15 12:26:30;;;;;;;0.10;0.10;;;26.90;99.90;;;;;;5049255;28;20289;-81
2023/06/15 12:28:56;;;;;;;0.10;0.10;;;27.80;99.90;;;;;;5047896;28;20285;-81
2023/06/15 12:31:21;;;;;;;0.10;0.10;;;27.20;99.90;;;;;;5047934;28;20245;-81
2023/06/15 12:33:50;;;;;;;0.10;0.10;;;27.30;99.90;;;;;;5048622;28;20177;-81
2023/06/15 12:36:16;;;;;;;0.10;0.10;;;27.70;99.90;;;;;;5047719;28;20590;-81
2023/06/15 12:38:46;;;;;;;0.10;0.10;;;26.70;99.90;;;;;;5047631;28;20205;-81
2023/06/15 12:41:15;;;;;;;0.10;0.10;;;26.80;99.90;;;;;;5048736;28;20170;-82
2023/06/15 12:43:42;;;;;;;0.10;0.10;;;26.90;99.90;;;;;;5047629;28;20174;-81
2023/06/15 12:46:08;;;;;;;0.10;0.10;;;26.60;99.90;;;;;;5047909;28;20174;-81
2023/06/15 12:48:33;;;;;;;0.10;0.10;;;27.30;99.90;;;;;;5047251;28;20190;-81